sensor_id;sensor_type;location;lat;lon;timestamp;pressure;altitude;pressure_sealevel;temperature;humidity
6942;BME280;3510;43.200;27.920;2023-05-24T00:00:07;100765.59;;;22.00;53.75
6942;BME280;3510;43.200;27.920;2023-05-24T00:02:38;100758.44;;;22.14;53.63
6942;BME280;3510;43.200;27.920;2023-05-24T00:05:08;100734.56;;;21.92;53.65
6942;BME280;3510;43.200;27.920;2023-05-24T00:07:35;100725.72;;;22.08;53.18
6942;BME280;3510;43.200;27.920;2023-05-24T00:10:02;100747.56;;;22.21;52.67
6942;BME280;3510;43.200;27.920;2023-05-24T00:12:30;100749.22;;;22.19;52.95
6942;BME280;3510;43.200;27.920;2023-05-24T00:14:56;100722.16;;;21.81;53.66
6942;BME280;3510;43.200;27.920;2023-05-24T00:17:24;100761.44;;;22.26;52.78
6942;BME280;3510;43.200;27.920;2023-05-24T00:19:50;100759.16;;;22.34;52.44
6942;BME280;3510;43.200;27.920;2023-05-24T00:22:19;100766.75;;;23.06;50.77
6942;BME280;3510;43.200;27.920;2023-05-24T00:24:46;100758.75;;;23.51;49.69
6942;BME280;3510;43.200;27.920;2023-05-24T00:27:13;100731.19;;;23.43;49.10
6942;BME280;3510;43.200;27.920;2023-05-24T00:29:40;100761.63;;;23.60;48.69
6942;BME280;3510;43.200;27.920;2023-05-24T00:32:07;100762.91;;;23.18;50.03
6942;BME280;3510;43.200;27.920;2023-05-24T00:34:33;100768.88;;;23.72;49.02
6942;BME280;3510;43.200;27.920;2023-05-24T00:37:00;100745.88;;;23.49;48.73
6942;BME280;3510;43.200;27.920;2023-05-24T00:39:29;100759.78;;;24.13;48.04
6942;BME280;3510;43.200;27.920;2023-05-24T00:41:55;100771.91;;;24.17;47.59
6942;BME280;3510;43.200;27.920;2023-05-24T00:44:22;100771.25;;;24.24;47.61
6942;BME280;3510;43.200;27.920;2023-05-24T00:46:49;100757.84;;;24.36;47.37
6942;BME280;3510;43.200;27.920;2023-05-24T00:49:16;100734.03;;;23.54;48.46
6942;BME280;3510;43.200;27.920;2023-05-24T00:51:43;100725.53;;;23.01;49.84
6942;BME280;3510;43.200;27.920;2023-05-24T00:54:09;100755.06;;;23.41;49.23
6942;BME280;3510;43.200;27.920;2023-05-24T00:56:39;100756.38;;;23.84;48.30
6942;BME280;3510;43.200;27.920;2023-05-24T00:59:07;100758.19;;;23.59;49.11
6942;BME280;3510;43.200;27.920;2023-05-24T01:01:34;100715.50;;;22.83;49.84
6942;BME280;3510;43.200;27.920;2023-05-24T01:04:01;100756.06;;;22.92;50.34
6942;BME280;3510;43.200;27.920;2023-05-24T01:06:28;100757.69;;;22.40;51.45
6942;BME280;3510;43.200;27.920;2023-05-24T01:09:09;100754.97;;;22.61;51.21
6942;BME280;3510;43.200;27.920;2023-05-24T01:11:52;100745.16;;;22.50;51.22
6942;BME280;3510;43.200;27.920;2023-05-24T01:14:26;100765.03;;;22.31;51.75
6942;BME280;3510;43.200;27.920;2023-05-24T01:17:00;100745.34;;;22.30;51.97
6942;BME280;3510;43.200;27.920;2023-05-24T01:19:42;100751.84;;;22.44;51.51
6942;BME280;3510;43.200;27.920;2023-05-24T01:22:26;100746.81;;;22.48;51.37
6942;BME280;3510;43.200;27.920;2023-05-24T01:25:02;100755.34;;;22.72;50.87
6942;BME280;3510;43.200;27.920;2023-05-24T01:27:32;100757.50;;;22.85;50.59
6942;BME280;3510;43.200;27.920;2023-05-24T01:30:02;100757.63;;;23.14;49.84
6942;BME280;3510;43.200;27.920;2023-05-24T01:32:30;100763.19;;;23.01;49.79
6942;BME280;3510;43.200;27.920;2023-05-24T01:34:58;100768.75;;;22.63;50.60
6942;BME280;3510;43.200;27.920;2023-05-24T01:37:25;100751.91;;;22.22;51.20
6942;BME280;3510;43.200;27.920;2023-05-24T01:39:52;100761.09;;;22.17;51.88
6942;BME280;3510;43.200;27.920;2023-05-24T01:42:24;100764.28;;;22.83;50.27
6942;BME280;3510;43.200;27.920;2023-05-24T01:45:05;100720.91;;;22.91;49.16
6942;BME280;3510;43.200;27.920;2023-05-24T01:47:44;100752.63;;;22.67;50.40
6942;BME280;3510;43.200;27.920;2023-05-24T01:50:19;100753.22;;;21.66;52.34
6942;BME280;3510;43.200;27.920;2023-05-24T01:52:49;100749.38;;;21.55;53.02
6942;BME280;3510;43.200;27.920;2023-05-24T01:55:17;100752.41;;;21.46;53.09
6942;BME280;3510;43.200;27.920;2023-05-24T01:57:45;100759.53;;;21.75;52.34
6942;BME280;3510;43.200;27.920;2023-05-24T02:00:17;100739.00;;;21.74;52.34
6942;BME280;3510;43.200;27.920;2023-05-24T02:02:44;100761.69;;;22.32;51.20
6942;BME280;3510;43.200;27.920;2023-05-24T02:05:11;100758.22;;;21.63;52.50
6942;BME280;3510;43.200;27.920;2023-05-24T02:07:38;100763.19;;;21.37;53.24
6942;BME280;3510;43.200;27.920;2023-05-24T02:10:07;100756.50;;;21.63;52.69
6942;BME280;3510;43.200;27.920;2023-05-24T02:12:34;100756.06;;;21.96;52.13
6942;BME280;3510;43.200;27.920;2023-05-24T02:15:01;100757.31;;;22.07;51.58
6942;BME280;3510;43.200;27.920;2023-05-24T02:17:30;100764.31;;;22.35;50.90
6942;BME280;3510;43.200;27.920;2023-05-24T02:19:57;100755.41;;;21.79;52.17
6942;BME280;3510;43.200;27.920;2023-05-24T02:22:25;100741.44;;;21.71;52.39
6942;BME280;3510;43.200;27.920;2023-05-24T02:24:53;100762.63;;;21.89;52.44
6942;BME280;3510;43.200;27.920;2023-05-24T02:27:20;100752.97;;;21.82;52.52
6942;BME280;3510;43.200;27.920;2023-05-24T02:29:47;100760.78;;;22.09;52.03
6942;BME280;3510;43.200;27.920;2023-05-24T02:32:13;100754.50;;;22.01;52.36
6942;BME280;3510;43.200;27.920;2023-05-24T02:34:41;100774.47;;;21.42;53.70
6942;BME280;3510;43.200;27.920;2023-05-24T02:37:08;100767.28;;;21.55;53.33
6942;BME280;3510;43.200;27.920;2023-05-24T02:39:39;100769.38;;;21.87;52.81
6942;BME280;3510;43.200;27.920;2023-05-24T02:42:07;100758.53;;;21.49;53.38
6942;BME280;3510;43.200;27.920;2023-05-24T02:44:35;100745.31;;;21.61;53.05
6942;BME280;3510;43.200;27.920;2023-05-24T02:47:02;100771.59;;;21.56;53.41
6942;BME280;3510;43.200;27.920;2023-05-24T02:49:29;100763.75;;;21.32;53.90
6942;BME280;3510;43.200;27.920;2023-05-24T02:51:57;100787.50;;;21.92;52.48
6942;BME280;3510;43.200;27.920;2023-05-24T02:54:24;100786.84;;;22.20;52.04
6942;BME280;3510;43.200;27.920;2023-05-24T02:56:51;100789.53;;;22.47;51.45
6942;BME280;3510;43.200;27.920;2023-05-24T02:59:18;100788.47;;;22.40;51.44
6942;BME280;3510;43.200;27.920;2023-05-24T03:01:44;100761.44;;;22.26;51.26
6942;BME280;3510;43.200;27.920;2023-05-24T03:04:11;100784.75;;;21.65;53.11
6942;BME280;3510;43.200;27.920;2023-05-24T03:06:38;100790.53;;;21.38;54.07
6942;BME280;3510;43.200;27.920;2023-05-24T03:09:06;100784.94;;;21.69;53.37
6942;BME280;3510;43.200;27.920;2023-05-24T03:11:33;100785.56;;;22.09;52.73
6942;BME280;3510;43.200;27.920;2023-05-24T03:14:00;100770.75;;;22.24;51.86
6942;BME280;3510;43.200;27.920;2023-05-24T03:16:27;100786.09;;;22.00;52.40
6942;BME280;3510;43.200;27.920;2023-05-24T03:18:53;100752.50;;;21.70;52.55
6942;BME280;3510;43.200;27.920;2023-05-24T03:21:21;100783.81;;;22.08;52.06
6942;BME280;3510;43.200;27.920;2023-05-24T03:23:47;100788.66;;;22.70;50.71
6942;BME280;3510;43.200;27.920;2023-05-24T03:26:18;100788.97;;;22.80;50.58
6942;BME280;3510;43.200;27.920;2023-05-24T03:28:46;100785.84;;;21.94;52.54
6942;BME280;3510;43.200;27.920;2023-05-24T03:31:14;100783.38;;;22.18;52.15
6942;BME280;3510;43.200;27.920;2023-05-24T03:33:42;100781.41;;;22.12;52.30
6942;BME280;3510;43.200;27.920;2023-05-24T03:36:08;100784.84;;;21.45;53.90
6942;BME280;3510;43.200;27.920;2023-05-24T03:38:35;100794.06;;;21.21;54.66
6942;BME280;3510;43.200;27.920;2023-05-24T03:41:02;100770.66;;;21.54;53.76
6942;BME280;3510;43.200;27.920;2023-05-24T03:43:30;100788.69;;;22.02;52.53
6942;BME280;3510;43.200;27.920;2023-05-24T03:45:57;100794.69;;;22.02;52.64
6942;BME280;3510;43.200;27.920;2023-05-24T03:48:24;100786.69;;;21.70;53.41
6942;BME280;3510;43.200;27.920;2023-05-24T03:50:50;100788.13;;;21.64;53.99
6942;BME280;3510;43.200;27.920;2023-05-24T03:53:17;100758.72;;;21.12;54.91
6942;BME280;3510;43.200;27.920;2023-05-24T03:55:44;100785.59;;;21.65;53.77
6942;BME280;3510;43.200;27.920;2023-05-24T03:58:11;100802.69;;;22.56;51.63
6942;BME280;3510;43.200;27.920;2023-05-24T04:00:39;100801.88;;;22.57;51.49
6942;BME280;3510;43.200;27.920;2023-05-24T04:03:06;100800.94;;;22.09;52.63
6942;BME280;3510;43.200;27.920;2023-05-24T04:05:33;100803.06;;;22.67;51.30
6942;BME280;3510;43.200;27.920;2023-05-24T04:08:00;100807.91;;;22.35;51.90
6942;BME280;3510;43.200;27.920;2023-05-24T04:10:27;100807.94;;;23.09;50.21
6942;BME280;3510;43.200;27.920;2023-05-24T04:12:54;100811.16;;;22.78;50.82
6942;BME280;3510;43.200;27.920;2023-05-24T04:15:21;100809.91;;;23.16;50.05
6942;BME280;3510;43.200;27.920;2023-05-24T04:17:49;100798.81;;;22.67;51.29
6942;BME280;3510;43.200;27.920;2023-05-24T04:20:19;100812.19;;;22.59;51.46
6942;BME280;3510;43.200;27.920;2023-05-24T04:22:48;100788.81;;;22.27;52.10
6942;BME280;3510;43.200;27.920;2023-05-24T04:25:15;100807.53;;;22.25;52.43
6942;BME280;3510;43.200;27.920;2023-05-24T04:27:42;100811.91;;;22.27;52.57
6942;BME280;3510;43.200;27.920;2023-05-24T04:30:12;100796.09;;;21.94;53.21
6942;BME280;3510;43.200;27.920;2023-05-24T04:32:40;100818.47;;;22.67;52.41
6942;BME280;3510;43.200;27.920;2023-05-24T04:35:10;100820.63;;;22.80;51.42
6942;BME280;3510;43.200;27.920;2023-05-24T04:37:36;100811.06;;;22.76;52.03
6942;BME280;3510;43.200;27.920;2023-05-24T04:40:05;100813.50;;;22.96;50.89
6942;BME280;3510;43.200;27.920;2023-05-24T04:42:32;100814.28;;;23.46;50.07
6942;BME280;3510;43.200;27.920;2023-05-24T04:44:59;100826.06;;;23.39;50.41
6942;BME280;3510;43.200;27.920;2023-05-24T04:47:25;100823.97;;;23.54;49.79
6942;BME280;3510;43.200;27.920;2023-05-24T04:49:52;100828.78;;;23.43;49.85
6942;BME280;3510;43.200;27.920;2023-05-24T04:52:20;100810.00;;;22.93;51.10
6942;BME280;3510;43.200;27.920;2023-05-24T04:54:47;100816.78;;;23.17;50.79
6942;BME280;3510;43.200;27.920;2023-05-24T04:57:15;100820.13;;;23.40;50.12
6942;BME280;3510;43.200;27.920;2023-05-24T04:59:42;100807.41;;;23.72;49.07
6942;BME280;3510;43.200;27.920;2023-05-24T05:02:09;100819.16;;;23.36;50.31
6942;BME280;3510;43.200;27.920;2023-05-24T05:04:36;100817.03;;;23.77;49.39
6942;BME280;3510;43.200;27.920;2023-05-24T05:07:02;100792.22;;;24.08;48.59
6942;BME280;3510;43.200;27.920;2023-05-24T05:09:31;100807.88;;;23.87;48.83
6942;BME280;3510;43.200;27.920;2023-05-24T05:11:58;100814.88;;;24.50;47.84
6942;BME280;3510;43.200;27.920;2023-05-24T05:14:25;100826.28;;;24.91;46.49
6942;BME280;3510;43.200;27.920;2023-05-24T05:16:51;100814.75;;;24.45;47.49
6942;BME280;3510;43.200;27.920;2023-05-24T05:19:18;100821.59;;;24.16;48.28
6942;BME280;3510;43.200;27.920;2023-05-24T05:21:45;100816.34;;;24.40;47.52
6942;BME280;3510;43.200;27.920;2023-05-24T05:24:13;100822.88;;;24.60;47.43
6942;BME280;3510;43.200;27.920;2023-05-24T05:26:41;100817.38;;;24.80;46.81
6942;BME280;3510;43.200;27.920;2023-05-24T05:29:08;100829.03;;;25.68;45.25
6942;BME280;3510;43.200;27.920;2023-05-24T05:31:35;100828.84;;;26.38;43.71
6942;BME280;3510;43.200;27.920;2023-05-24T05:34:02;100817.44;;;26.26;43.70
6942;BME280;3510;43.200;27.920;2023-05-24T05:36:28;100836.22;;;26.60;42.92
6942;BME280;3510;43.200;27.920;2023-05-24T05:38:55;100844.88;;;26.64;43.26
6942;BME280;3510;43.200;27.920;2023-05-24T05:41:22;100839.25;;;26.42;43.49
6942;BME280;3510;43.200;27.920;2023-05-24T05:43:50;100835.44;;;26.23;43.89
6942;BME280;3510;43.200;27.920;2023-05-24T05:46:17;100797.84;;;25.56;44.94
6942;BME280;3510;43.200;27.920;2023-05-24T05:48:45;100840.13;;;25.64;45.13
6942;BME280;3510;43.200;27.920;2023-05-24T05:51:12;100812.91;;;26.57;43.23
6942;BME280;3510;43.200;27.920;2023-05-24T05:53:39;100836.34;;;26.66;43.59
6942;BME280;3510;43.200;27.920;2023-05-24T05:56:06;100828.72;;;27.77;41.16
6942;BME280;3510;43.200;27.920;2023-05-24T05:58:35;100832.22;;;27.78;41.02
6942;BME280;3510;43.200;27.920;2023-05-24T06:01:04;100805.97;;;28.17;40.22
6942;BME280;3510;43.200;27.920;2023-05-24T06:03:31;100813.28;;;27.82;40.70
6942;BME280;3510;43.200;27.920;2023-05-24T06:05:58;100830.53;;;28.48;39.72
6942;BME280;3510;43.200;27.920;2023-05-24T06:08:24;100829.47;;;28.35;39.90
6942;BME280;3510;43.200;27.920;2023-05-24T06:10:51;100832.94;;;27.73;40.92
6942;BME280;3510;43.200;27.920;2023-05-24T06:13:18;100857.03;;;27.66;41.51
6942;BME280;3510;43.200;27.920;2023-05-24T06:15:45;100865.34;;;28.05;40.87
6942;BME280;3510;43.200;27.920;2023-05-24T06:18:13;100852.88;;;28.38;40.64
6942;BME280;3510;43.200;27.920;2023-05-24T06:20:39;100858.81;;;29.07;39.54
6942;BME280;3510;43.200;27.920;2023-05-24T06:23:06;100854.56;;;30.54;37.22
6942;BME280;3510;43.200;27.920;2023-05-24T06:25:33;100857.28;;;31.16;35.58
6942;BME280;3510;43.200;27.920;2023-05-24T06:28:00;100859.06;;;31.30;35.38
6942;BME280;3510;43.200;27.920;2023-05-24T06:30:27;100858.53;;;32.94;33.28
6942;BME280;3510;43.200;27.920;2023-05-24T06:32:54;100860.44;;;32.68;33.44
6942;BME280;3510;43.200;27.920;2023-05-24T06:35:22;100858.84;;;33.64;32.09
6942;BME280;3510;43.200;27.920;2023-05-24T06:37:49;100854.09;;;34.00;31.02
6942;BME280;3510;43.200;27.920;2023-05-24T06:40:16;100857.88;;;32.54;31.71
6942;BME280;3510;43.200;27.920;2023-05-24T06:42:43;100853.88;;;31.33;33.15
6942;BME280;3510;43.200;27.920;2023-05-24T06:45:10;100856.41;;;31.63;33.47
6942;BME280;3510;43.200;27.920;2023-05-24T06:47:37;100867.66;;;32.04;33.71
6942;BME280;3510;43.200;27.920;2023-05-24T06:50:05;100856.16;;;32.51;32.51
6942;BME280;3510;43.200;27.920;2023-05-24T06:52:34;100844.56;;;33.00;31.96
6942;BME280;3510;43.200;27.920;2023-05-24T06:55:01;100865.94;;;33.50;30.96
6942;BME280;3510;43.200;27.920;2023-05-24T06:57:29;100869.38;;;31.81;34.09
6942;BME280;3510;43.200;27.920;2023-05-24T06:59:55;100884.13;;;31.99;34.80
6942;BME280;3510;43.200;27.920;2023-05-24T07:02:22;100879.22;;;33.17;33.08
6942;BME280;3510;43.200;27.920;2023-05-24T07:04:51;100875.63;;;33.34;32.72
6942;BME280;3510;43.200;27.920;2023-05-24T07:07:19;100866.34;;;32.96;33.06
6942;BME280;3510;43.200;27.920;2023-05-24T07:09:47;100866.19;;;33.19;32.16
6942;BME280;3510;43.200;27.920;2023-05-24T07:12:14;100872.84;;;32.03;33.93
6942;BME280;3510;43.200;27.920;2023-05-24T07:14:40;100869.38;;;31.96;34.74
6942;BME280;3510;43.200;27.920;2023-05-24T07:17:07;100882.41;;;31.73;35.24
6942;BME280;3510;43.200;27.920;2023-05-24T07:19:34;100878.97;;;31.70;35.34
6942;BME280;3510;43.200;27.920;2023-05-24T07:22:01;100873.75;;;31.97;35.42
6942;BME280;3510;43.200;27.920;2023-05-24T07:24:28;100842.50;;;31.80;34.80
6942;BME280;3510;43.200;27.920;2023-05-24T07:30:07;100885.84;;;32.09;34.72
6942;BME280;3510;43.200;27.920;2023-05-24T07:32:34;100882.38;;;32.07;34.35
6942;BME280;3510;43.200;27.920;2023-05-24T07:35:01;100891.03;;;32.20;34.78
6942;BME280;3510;43.200;27.920;2023-05-24T07:37:28;100894.56;;;31.97;35.30
6942;BME280;3510;43.200;27.920;2023-05-24T07:39:55;100886.84;;;29.54;38.64
6942;BME280;3510;43.200;27.920;2023-05-24T07:42:22;100885.22;;;29.59;39.09
6942;BME280;3510;43.200;27.920;2023-05-24T07:44:49;100877.28;;;29.47;39.19
6942;BME280;3510;43.200;27.920;2023-05-24T07:47:17;100883.19;;;30.70;37.34
6942;BME280;3510;43.200;27.920;2023-05-24T07:49:44;100883.16;;;30.65;37.59
6942;BME280;3510;43.200;27.920;2023-05-24T07:52:10;100887.59;;;30.92;36.68
6942;BME280;3510;43.200;27.920;2023-05-24T07:54:37;100887.66;;;31.40;36.09
6942;BME280;3510;43.200;27.920;2023-05-24T07:57:04;100894.59;;;31.64;35.85
6942;BME280;3510;43.200;27.920;2023-05-24T07:59:32;100890.16;;;30.75;35.56
6942;BME280;3510;43.200;27.920;2023-05-24T08:01:59;100892.78;;;30.80;36.05
6942;BME280;3510;43.200;27.920;2023-05-24T08:04:31;100896.31;;;31.19;36.21
6942;BME280;3510;43.200;27.920;2023-05-24T08:06:58;100875.50;;;31.62;35.22
6942;BME280;3510;43.200;27.920;2023-05-24T08:09:26;100878.09;;;31.58;34.97
6942;BME280;3510;43.200;27.920;2023-05-24T08:11:54;100891.91;;;30.81;35.68
6942;BME280;3510;43.200;27.920;2023-05-24T08:14:21;100888.34;;;30.59;36.15
6942;BME280;3510;43.200;27.920;2023-05-24T08:16:47;100891.56;;;30.10;36.31
6942;BME280;3510;43.200;27.920;2023-05-24T08:19:14;100894.38;;;30.41;36.25
6942;BME280;3510;43.200;27.920;2023-05-24T08:21:42;100885.78;;;30.64;36.72
6942;BME280;3510;43.200;27.920;2023-05-24T08:24:09;100890.06;;;30.52;36.38
6942;BME280;3510;43.200;27.920;2023-05-24T08:26:36;100889.34;;;30.99;35.70
6942;BME280;3510;43.200;27.920;2023-05-24T08:29:03;100891.13;;;31.32;35.11
6942;BME280;3510;43.200;27.920;2023-05-24T08:31:30;100896.34;;;31.60;35.66
6942;BME280;3510;43.200;27.920;2023-05-24T08:33:57;100898.09;;;31.38;35.62
6942;BME280;3510;43.200;27.920;2023-05-24T08:36:39;100853.88;;;31.33;34.79
6942;BME280;3510;43.200;27.920;2023-05-24T08:39:07;100892.88;;;31.47;35.22
6942;BME280;3510;43.200;27.920;2023-05-24T08:41:35;100894.44;;;30.66;36.50
6942;BME280;3510;43.200;27.920;2023-05-24T08:44:04;100890.19;;;30.80;36.95
6942;BME280;3510;43.200;27.920;2023-05-24T08:46:33;100896.69;;;29.94;38.59
6942;BME280;3510;43.200;27.920;2023-05-24T08:49:01;100895.13;;;30.22;38.26
6942;BME280;3510;43.200;27.920;2023-05-24T08:51:28;100894.41;;;30.52;37.36
6942;BME280;3510;43.200;27.920;2023-05-24T08:53:57;100904.94;;;31.15;36.88
6942;BME280;3510;43.200;27.920;2023-05-24T08:56:26;100898.03;;;31.10;36.45
6942;BME280;3510;43.200;27.920;2023-05-24T08:58:54;100899.81;;;31.64;35.91
6942;BME280;3510;43.200;27.920;2023-05-24T09:01:23;100918.88;;;31.72;36.12
6942;BME280;3510;43.200;27.920;2023-05-24T09:03:50;100915.41;;;31.88;35.71
6942;BME280;3510;43.200;27.920;2023-05-24T09:06:31;100920.50;;;32.29;34.66
6942;BME280;3510;43.200;27.920;2023-05-24T09:08:59;100899.63;;;32.49;33.88
6942;BME280;3510;43.200;27.920;2023-05-24T09:11:30;100916.75;;;32.99;33.29
6942;BME280;3510;43.200;27.920;2023-05-24T09:13:58;100929.06;;;32.68;33.16
6942;BME280;3510;43.200;27.920;2023-05-24T09:16:26;100924.91;;;32.20;34.40
6942;BME280;3510;43.200;27.920;2023-05-24T09:18:53;100934.41;;;32.22;35.22
6942;BME280;3510;43.200;27.920;2023-05-24T09:21:20;100928.41;;;31.41;35.30
6942;BME280;3510;43.200;27.920;2023-05-24T09:23:48;100913.69;;;31.41;35.78
6942;BME280;3510;43.200;27.920;2023-05-24T09:26:14;100927.50;;;31.17;36.53
6942;BME280;3510;43.200;27.920;2023-05-24T09:28:46;100930.16;;;31.78;35.41
6942;BME280;3510;43.200;27.920;2023-05-24T09:31:12;100846.91;;;31.08;35.74
6942;BME280;3510;43.200;27.920;2023-05-24T09:33:39;100927.56;;;31.71;35.92
6942;BME280;3510;43.200;27.920;2023-05-24T09:36:07;100921.41;;;31.00;36.70
6942;BME280;3510;43.200;27.920;2023-05-24T09:38:34;100925.78;;;31.25;35.56
6942;BME280;3510;43.200;27.920;2023-05-24T09:41:03;100888.34;;;30.67;35.18
6942;BME280;3510;43.200;27.920;2023-05-24T09:43:31;100916.69;;;30.13;36.27
6942;BME280;3510;43.200;27.920;2023-05-24T09:46:02;100894.44;;;30.64;36.44
6942;BME280;3510;43.200;27.920;2023-05-24T09:48:30;100918.81;;;31.01;35.91
6942;BME280;3510;43.200;27.920;2023-05-24T09:51:01;100917.81;;;30.70;36.49
6942;BME280;3510;43.200;27.920;2023-05-24T09:53:29;100863.13;;;30.32;36.97
6942;BME280;3510;43.200;27.920;2023-05-24T09:55:58;100897.94;;;30.71;36.82
6942;BME280;3510;43.200;27.920;2023-05-24T09:58:28;100910.00;;;30.62;38.04
6942;BME280;3510;43.200;27.920;2023-05-24T10:01:04;100924.03;;;31.06;37.70
6942;BME280;3510;43.200;27.920;2023-05-24T10:03:32;100926.69;;;31.43;37.13
6942;BME280;3510;43.200;27.920;2023-05-24T10:05:59;100924.09;;;31.75;36.23
6942;BME280;3510;43.200;27.920;2023-05-24T10:08:30;100930.16;;;31.94;36.60
6942;BME280;3510;43.200;27.920;2023-05-24T10:10:57;100932.78;;;31.89;36.35
6942;BME280;3510;43.200;27.920;2023-05-24T10:13:24;100917.16;;;31.31;37.01
6942;BME280;3510;43.200;27.920;2023-05-24T10:15:52;100931.00;;;31.85;36.32
6942;BME280;3510;43.200;27.920;2023-05-24T10:18:20;100928.06;;;30.29;39.13
6942;BME280;3510;43.200;27.920;2023-05-24T10:20:47;100909.28;;;30.97;38.34
6942;BME280;3510;43.200;27.920;2023-05-24T10:23:20;100928.34;;;31.02;38.03
6942;BME280;3510;43.200;27.920;2023-05-24T10:25:51;100929.25;;;31.29;38.14
6942;BME280;3510;43.200;27.920;2023-05-24T10:28:23;100896.28;;;30.94;38.11
6942;BME280;3510;43.200;27.920;2023-05-24T10:30:59;100900.69;;;31.33;36.44
6942;BME280;3510;43.200;27.920;2023-05-24T10:33:30;100897.19;;;31.30;37.14
6942;BME280;3510;43.200;27.920;2023-05-24T10:36:01;100898.88;;;31.03;37.89
6942;BME280;3510;43.200;27.920;2023-05-24T10:38:29;100917.09;;;31.09;37.91
6942;BME280;3510;43.200;27.920;2023-05-24T10:40:56;100906.66;;;30.96;38.58
6942;BME280;3510;43.200;27.920;2023-05-24T10:43:25;100891.09;;;30.97;38.09
6942;BME280;3510;43.200;27.920;2023-05-24T10:45:51;100894.56;;;31.15;37.60
6942;BME280;3510;43.200;27.920;2023-05-24T10:48:35;100909.25;;;30.83;38.80
6942;BME280;3510;43.200;27.920;2023-05-24T10:54:13;100892.41;;;30.02;39.84
6942;BME280;3510;43.200;27.920;2023-05-24T10:56:43;100888.31;;;30.51;39.90
6942;BME280;3510;43.200;27.920;2023-05-24T10:59:22;100898.00;;;31.03;38.83
6942;BME280;3510;43.200;27.920;2023-05-24T11:01:57;100890.25;;;31.27;38.12
6942;BME280;3510;43.200;27.920;2023-05-24T11:04:30;100882.44;;;31.44;37.79
6942;BME280;3510;43.200;27.920;2023-05-24T11:07:00;100893.69;;;31.25;38.27
6942;BME280;3510;43.200;27.920;2023-05-24T11:09:28;100882.44;;;31.23;37.42
6942;BME280;3510;43.200;27.920;2023-05-24T11:11:57;100885.88;;;31.09;37.67
6942;BME280;3510;43.200;27.920;2023-05-24T11:14:28;100896.28;;;31.05;37.54
6942;BME280;3510;43.200;27.920;2023-05-24T11:16:57;100898.03;;;31.17;38.08
6942;BME280;3510;43.200;27.920;2023-05-24T11:19:31;100905.84;;;31.83;36.54
6942;BME280;3510;43.200;27.920;2023-05-24T11:22:02;100903.25;;;31.63;36.32
6942;BME280;3510;43.200;27.920;2023-05-24T11:24:29;100897.19;;;31.97;35.71
6942;BME280;3510;43.200;27.920;2023-05-24T11:26:56;100900.50;;;32.33;34.88
6942;BME280;3510;43.200;27.920;2023-05-24T11:29:23;100891.97;;;31.77;35.16
6942;BME280;3510;43.200;27.920;2023-05-24T11:31:51;100897.03;;;32.40;35.09
6942;BME280;3510;43.200;27.920;2023-05-24T11:34:18;100911.53;;;32.96;34.20
6942;BME280;3510;43.200;27.920;2023-05-24T11:36:47;100913.69;;;31.90;35.58
6942;BME280;3510;43.200;27.920;2023-05-24T11:39:14;100911.09;;;31.50;36.15
6942;BME280;3510;43.200;27.920;2023-05-24T11:41:42;100902.22;;;32.49;35.32
6942;BME280;3510;43.200;27.920;2023-05-24T11:44:10;100909.31;;;31.85;36.08
6942;BME280;3510;43.200;27.920;2023-05-24T11:46:38;100903.19;;;30.83;37.69
6942;BME280;3510;43.200;27.920;2023-05-24T11:49:06;100901.53;;;31.68;36.47
6942;BME280;3510;43.200;27.920;2023-05-24T11:51:33;100886.41;;;32.80;34.71
6942;BME280;3510;43.200;27.920;2023-05-24T11:54:03;100894.50;;;33.63;33.04
6942;BME280;3510;43.200;27.920;2023-05-24T11:56:30;100906.91;;;34.26;31.83
6942;BME280;3510;43.200;27.920;2023-05-24T11:59:14;100897.09;;;33.68;32.78
6942;BME280;3510;43.200;27.920;2023-05-24T12:01:42;100899.09;;;34.28;31.92
6942;BME280;3510;43.200;27.920;2023-05-24T12:04:09;100895.16;;;33.85;31.67
6942;BME280;3510;43.200;27.920;2023-05-24T12:06:38;100886.66;;;33.68;32.38
6942;BME280;3510;43.200;27.920;2023-05-24T12:09:07;100893.47;;;35.20;30.87
6942;BME280;3510;43.200;27.920;2023-05-24T12:11:38;100894.00;;;35.88;29.78
6942;BME280;3510;43.200;27.920;2023-05-24T12:14:06;100890.66;;;36.67;28.44
6942;BME280;3510;43.200;27.920;2023-05-24T12:16:34;100883.91;;;36.97;28.35
6942;BME280;3510;43.200;27.920;2023-05-24T12:19:02;100892.28;;;35.87;28.97
6942;BME280;3510;43.200;27.920;2023-05-24T12:21:30;100899.50;;;37.38;27.62
6942;BME280;3510;43.200;27.920;2023-05-24T12:24:08;100888.66;;;37.17;27.67
6942;BME280;3510;43.200;27.920;2023-05-24T12:26:39;100876.44;;;38.14;26.42
6942;BME280;3510;43.200;27.920;2023-05-24T12:29:06;100876.88;;;37.99;26.97
6942;BME280;3510;43.200;27.920;2023-05-24T12:31:34;100875.66;;;37.47;27.86
6942;BME280;3510;43.200;27.920;2023-05-24T12:34:01;100880.88;;;36.33;28.76
6942;BME280;3510;43.200;27.920;2023-05-24T12:36:29;100886.09;;;35.92;29.32
6942;BME280;3510;43.200;27.920;2023-05-24T12:38:56;100865.06;;;34.31;31.31
6942;BME280;3510;43.200;27.920;2023-05-24T12:41:25;100867.16;;;33.03;33.31
6942;BME280;3510;43.200;27.920;2023-05-24T12:43:52;100866.88;;;33.36;33.00
6942;BME280;3510;43.200;27.920;2023-05-24T12:46:19;100874.31;;;32.74;33.78
6942;BME280;3510;43.200;27.920;2023-05-24T12:48:45;100855.44;;;32.14;34.93
6942;BME280;3510;43.200;27.920;2023-05-24T12:51:13;100856.41;;;31.75;35.78
6942;BME280;3510;43.200;27.920;2023-05-24T12:53:39;100866.81;;;31.75;35.24
6942;BME280;3510;43.200;27.920;2023-05-24T12:56:07;100871.16;;;31.74;35.46
6942;BME280;3510;43.200;27.920;2023-05-24T12:58:36;100867.66;;;31.81;35.47
6942;BME280;3510;43.200;27.920;2023-05-24T13:01:02;100868.59;;;31.42;36.33
6942;BME280;3510;43.200;27.920;2023-05-24T13:03:29;100826.94;;;30.87;37.06
6942;BME280;3510;43.200;27.920;2023-05-24T13:05:56;100847.75;;;30.90;37.09
6942;BME280;3510;43.200;27.920;2023-05-24T13:08:24;100859.88;;;31.03;37.22
6942;BME280;3510;43.200;27.920;2023-05-24T13:10:53;100864.25;;;31.37;36.70